createdAt,value
2019-04-30T00:00:38.044Z,99.90
2019-04-30T00:03:06.845Z,99.90
2019-04-30T00:05:35.402Z,99.90
2019-04-30T00:08:05.471Z,99.90
2019-04-30T00:10:36.902Z,99.90
2019-04-30T00:13:06.019Z,99.90
2019-04-30T00:15:35.712Z,99.90
2019-04-30T00:18:05.524Z,99.90
2019-04-30T00:20:35.196Z,99.90
2019-04-30T00:23:05.255Z,99.90
2019-04-30T00:25:35.170Z,99.90
2019-04-30T00:28:07.249Z,99.90
2019-04-30T00:30:35.093Z,99.90
2019-04-30T00:33:05.800Z,99.90
2019-04-30T00:35:35.546Z,99.90
2019-04-30T00:38:05.078Z,99.90
2019-04-30T00:40:35.218Z,99.90
2019-04-30T00:43:05.302Z,99.90
2019-04-30T00:45:35.334Z,99.90
2019-04-30T00:48:06.010Z,99.90
2019-04-30T00:50:37.264Z,99.90
2019-04-30T00:53:05.939Z,99.90
2019-04-30T00:55:38.137Z,99.90
2019-04-30T00:58:05.951Z,99.90
2019-04-30T01:00:37.185Z,99.90
2019-04-30T01:03:13.288Z,99.90
2019-04-30T01:05:46.458Z,99.90
2019-04-30T01:08:11.896Z,99.90
2019-04-30T01:10:40.345Z,99.90
2019-04-30T01:13:11.883Z,99.90
2019-04-30T01:15:39.090Z,99.90
2019-04-30T01:18:09.282Z,99.90
2019-04-30T01:20:38.630Z,99.90
2019-04-30T01:23:11.167Z,99.90
2019-04-30T01:25:38.888Z,99.90
2019-04-30T01:28:08.404Z,99.90
2019-04-30T01:30:39.407Z,99.90
2019-04-30T01:33:09.161Z,99.90
2019-04-30T01:35:38.221Z,99.90
2019-04-30T01:38:11.220Z,99.90
2019-04-30T01:40:42.893Z,99.90
2019-04-30T01:43:11.528Z,99.90
2019-04-30T01:45:39.928Z,99.90
2019-04-30T01:48:10.773Z,99.90
2019-04-30T01:50:41.959Z,99.90
2019-04-30T01:53:12.977Z,99.90
2019-04-30T01:55:49.511Z,99.90
2019-04-30T01:58:19.650Z,99.90
2019-04-30T02:00:59.362Z,99.90
2019-04-30T02:03:29.166Z,99.90
2019-04-30T02:05:59.527Z,99.90
2019-04-30T02:08:29.550Z,99.90
2019-04-30T02:10:59.397Z,99.90
2019-04-30T02:13:29.529Z,99.90
2019-04-30T02:15:59.306Z,99.90
2019-04-30T02:18:29.675Z,99.90
2019-04-30T02:20:59.470Z,99.90
2019-04-30T02:23:29.712Z,99.90
2019-04-30T02:25:58.965Z,99.90
2019-04-30T02:28:29.000Z,99.90
2019-04-30T02:30:59.980Z,99.90
2019-04-30T02:33:30.707Z,99.90
2019-04-30T02:36:10.319Z,99.90
2019-04-30T02:38:40.569Z,99.90
2019-04-30T02:41:09.989Z,99.90
2019-04-30T02:43:40.784Z,99.90
2019-04-30T02:46:10.615Z,99.90
2019-04-30T02:48:40.254Z,99.90
2019-04-30T02:51:12.477Z,99.90
2019-04-30T02:53:53.137Z,99.90
2019-04-30T02:56:26.573Z,99.90
2019-04-30T02:58:53.437Z,99.90
2019-04-30T03:01:22.030Z,99.90
2019-04-30T03:03:50.509Z,99.90
2019-04-30T03:06:20.549Z,99.90
2019-04-30T03:08:51.254Z,99.90
2019-04-30T03:11:20.668Z,99.90
2019-04-30T03:13:49.754Z,99.90
2019-04-30T03:16:20.701Z,99.90
2019-04-30T03:18:53.898Z,99.90
2019-04-30T03:21:42.210Z,99.90
2019-04-30T03:24:11.233Z,99.90
2019-04-30T03:26:40.367Z,99.90
2019-04-30T03:29:11.136Z,99.90
2019-04-30T03:31:44.002Z,99.90
2019-04-30T03:34:16.711Z,99.90
2019-04-30T03:36:40.619Z,99.90
2019-04-30T03:39:10.861Z,99.90
2019-04-30T03:41:41.306Z,99.90
2019-04-30T03:44:19.700Z,99.90
2019-04-30T03:46:40.218Z,99.90
2019-04-30T03:49:12.569Z,99.90
2019-04-30T03:51:40.240Z,99.90
2019-04-30T03:54:10.230Z,99.90
2019-04-30T03:56:39.966Z,99.90
2019-04-30T03:59:10.439Z,99.90
2019-04-30T04:01:59.521Z,99.90
2019-04-30T04:04:35.212Z,99.90
2019-04-30T04:07:23.462Z,99.90
2019-04-30T04:10:11.731Z,99.90
2019-04-30T04:12:40.198Z,99.90
2019-04-30T04:15:10.557Z,99.90
2019-04-30T04:17:39.893Z,99.90
2019-04-30T04:20:10.674Z,99.90
2019-04-30T04:22:40.332Z,99.90
2019-04-30T04:25:12.758Z,99.90
2019-04-30T04:27:39.412Z,99.90
2019-04-30T04:30:10.669Z,99.90
2019-04-30T04:32:40.684Z,99.90
2019-04-30T04:35:09.845Z,99.90
2019-04-30T04:37:39.691Z,99.90
2019-04-30T04:40:09.280Z,99.90
2019-04-30T04:42:39.599Z,99.90
2019-04-30T04:45:09.934Z,99.90
2019-04-30T04:47:40.242Z,99.90
2019-04-30T04:50:10.338Z,99.90
2019-04-30T04:52:39.622Z,99.90
2019-04-30T04:55:10.046Z,99.90
2019-04-30T04:57:40.086Z,99.90
2019-04-30T05:00:10.809Z,99.90
2019-04-30T05:02:41.052Z,99.90
2019-04-30T05:05:10.397Z,99.90
2019-04-30T05:07:39.885Z,99.90
2019-04-30T05:10:09.476Z,99.90
2019-04-30T05:12:39.823Z,99.90
2019-04-30T05:15:10.154Z,99.90
2019-04-30T05:17:39.803Z,99.90
2019-04-30T05:20:09.980Z,99.90
2019-04-30T05:22:39.017Z,99.90
2019-04-30T05:25:08.832Z,99.90
2019-04-30T05:27:39.052Z,99.90
2019-04-30T05:30:09.717Z,99.90
2019-04-30T05:32:39.116Z,99.90
2019-04-30T05:35:09.518Z,99.90
2019-04-30T05:37:38.443Z,99.90
2019-04-30T05:40:09.289Z,99.90
2019-04-30T05:42:38.719Z,99.90
2019-04-30T05:45:10.583Z,99.90
2019-04-30T05:47:39.102Z,99.90
2019-04-30T05:50:08.960Z,99.90
2019-04-30T05:52:39.512Z,99.90
2019-04-30T05:55:08.593Z,99.90
2019-04-30T05:57:40.790Z,99.90
2019-04-30T06:00:10.048Z,99.90
2019-04-30T06:02:39.896Z,99.90
2019-04-30T06:05:09.027Z,99.90
2019-04-30T06:07:39.293Z,99.90
2019-04-30T06:10:09.669Z,99.90
2019-04-30T06:12:39.796Z,99.90
2019-04-30T06:15:19.402Z,99.90
2019-04-30T06:17:59.698Z,99.90
2019-04-30T06:20:21.028Z,99.90
2019-04-30T06:22:52.167Z,99.90
2019-04-30T06:25:31.711Z,99.90
2019-04-30T06:27:51.360Z,99.90
2019-04-30T06:30:19.948Z,99.90
2019-04-30T06:32:49.635Z,99.90
2019-04-30T06:35:19.383Z,99.90
2019-04-30T06:37:48.901Z,99.90
2019-04-30T06:40:19.561Z,99.90
2019-04-30T06:42:49.522Z,99.90
2019-04-30T06:45:19.262Z,99.90
2019-04-30T06:47:48.895Z,99.90
2019-04-30T06:50:19.402Z,99.90
2019-04-30T06:52:56.321Z,99.90
2019-04-30T06:55:19.300Z,99.90
2019-04-30T06:57:49.643Z,99.90
2019-04-30T07:00:32.480Z,99.90
2019-04-30T07:02:50.046Z,99.90
2019-04-30T07:05:18.712Z,99.90
2019-04-30T07:07:48.971Z,99.90
2019-04-30T07:10:20.497Z,99.90
2019-04-30T07:12:50.714Z,99.90
2019-04-30T07:15:19.662Z,99.90
2019-04-30T07:17:49.172Z,99.90
2019-04-30T07:20:19.108Z,99.90
2019-04-30T07:22:52.437Z,99.90
2019-04-30T07:25:19.529Z,99.90
2019-04-30T07:27:50.589Z,99.90
2019-04-30T07:30:19.242Z,99.90
2019-04-30T07:32:48.843Z,99.90
2019-04-30T07:35:19.337Z,99.90
2019-04-30T07:37:49.517Z,99.90
2019-04-30T07:40:19.051Z,99.90
2019-04-30T07:42:49.256Z,99.90
2019-04-30T07:45:19.433Z,99.90
2019-04-30T07:47:49.504Z,98.90
2019-04-30T07:50:20.600Z,99.50
2019-04-30T07:53:01.917Z,99.60
2019-04-30T07:55:19.598Z,99.20
2019-04-30T07:57:50.554Z,99.90
2019-04-30T08:00:19.423Z,99.90
2019-04-30T08:03:06.513Z,99.90
2019-04-30T08:05:40.007Z,97.40
2019-04-30T08:08:20.647Z,92.70
2019-04-30T08:10:39.430Z,92.10
2019-04-30T08:13:13.682Z,91.40
2019-04-30T08:15:38.208Z,91.70
2019-04-30T08:18:08.753Z,91.70
2019-04-30T08:20:39.203Z,92.20
2019-04-30T08:23:20.303Z,92.70
2019-04-30T08:25:39.077Z,90.50
2019-04-30T08:28:09.097Z,90.10
2019-04-30T08:30:39.131Z,90.30
2019-04-30T08:33:09.461Z,90.60
2019-04-30T08:35:39.788Z,87.30
2019-04-30T08:38:10.615Z,86.40
2019-04-30T08:40:47.229Z,86.20
2019-04-30T08:43:09.541Z,85.40
2019-04-30T08:45:38.600Z,86.70
2019-04-30T08:48:09.102Z,89.40
2019-04-30T08:50:39.295Z,90.20
2019-04-30T08:53:10.926Z,88.20
2019-04-30T08:55:39.199Z,89.30
2019-04-30T08:58:12.439Z,87.50
2019-04-30T09:00:38.511Z,89.10
2019-04-30T09:03:09.230Z,90.00
2019-04-30T09:05:38.922Z,90.00
2019-04-30T09:08:09.636Z,86.40
2019-04-30T09:10:39.308Z,81.10
2019-04-30T09:13:09.118Z,75.80
2019-04-30T09:15:37.704Z,77.40
2019-04-30T09:18:11.710Z,77.50
2019-04-30T09:20:36.267Z,75.40
2019-04-30T09:23:04.702Z,72.70
2019-04-30T09:25:33.107Z,72.50
2019-04-30T09:28:04.291Z,72.70
2019-04-30T09:30:31.752Z,72.90
2019-04-30T09:33:00.190Z,70.00
2019-04-30T09:35:31.791Z,74.40
2019-04-30T09:38:01.751Z,74.20
2019-04-30T09:40:32.266Z,74.70
2019-04-30T09:43:00.401Z,72.50
2019-04-30T09:45:29.299Z,72.30
2019-04-30T09:47:59.208Z,68.60
2019-04-30T09:50:28.961Z,68.70
2019-04-30T09:53:00.077Z,68.90
2019-04-30T09:55:29.050Z,68.90
2019-04-30T09:57:58.839Z,70.50
2019-04-30T10:00:29.509Z,70.10
2019-04-30T10:02:59.782Z,70.70
2019-04-30T10:05:29.206Z,69.80
2019-04-30T10:07:59.404Z,66.30
2019-04-30T10:10:29.899Z,67.90
2019-04-30T10:12:59.255Z,66.90
2019-04-30T10:15:29.549Z,65.60
2019-04-30T10:17:58.346Z,64.70
2019-04-30T10:20:41.806Z,64.40
2019-04-30T10:23:10.239Z,61.90
2019-04-30T10:25:38.919Z,63.60
2019-04-30T10:28:10.019Z,64.80
2019-04-30T10:30:38.389Z,62.40
2019-04-30T10:33:07.130Z,62.60
2019-04-30T10:35:35.923Z,63.50
2019-04-30T10:38:04.906Z,60.20
2019-04-30T10:40:33.411Z,59.30
2019-04-30T10:43:01.938Z,58.90
2019-04-30T10:45:30.603Z,58.50
2019-04-30T10:47:59.271Z,58.40
2019-04-30T10:50:27.853Z,57.00
2019-04-30T10:52:56.261Z,57.40
2019-04-30T10:55:24.670Z,58.10
2019-04-30T10:57:53.153Z,58.60
2019-04-30T11:00:36.273Z,58.40
2019-04-30T11:03:17.255Z,57.90
2019-04-30T11:05:35.792Z,59.10
2019-04-30T11:08:04.366Z,58.50
2019-04-30T11:10:33.397Z,56.90
2019-04-30T11:13:01.859Z,56.90
2019-04-30T11:15:30.266Z,57.20
2019-04-30T11:17:59.686Z,56.70
2019-04-30T11:20:29.844Z,58.70
2019-04-30T11:22:58.547Z,57.00
2019-04-30T11:25:28.537Z,53.20
2019-04-30T11:27:57.802Z,52.90
2019-04-30T11:30:26.817Z,51.20
2019-04-30T11:32:56.324Z,52.80
2019-04-30T11:35:25.059Z,54.00
2019-04-30T11:37:53.546Z,51.30
2019-04-30T11:40:34.519Z,51.30
2019-04-30T11:42:57.617Z,51.90
2019-04-30T11:45:45.714Z,53.70
2019-04-30T11:48:14.279Z,51.10
2019-04-30T11:50:42.767Z,54.70
2019-04-30T11:53:24.521Z,52.00
2019-04-30T11:55:41.341Z,51.90
2019-04-30T11:58:21.106Z,51.90
2019-04-30T12:00:41.530Z,50.80
2019-04-30T12:03:10.146Z,50.70
2019-04-30T12:05:38.947Z,50.70
2019-04-30T12:08:11.926Z,51.80
2019-04-30T12:10:42.018Z,51.70
2019-04-30T12:13:26.437Z,50.60
2019-04-30T12:15:55.894Z,51.50
2019-04-30T12:18:24.448Z,50.70
2019-04-30T12:20:53.046Z,50.40
2019-04-30T12:23:21.698Z,49.90
2019-04-30T12:25:50.170Z,47.80
2019-04-30T12:28:19.516Z,49.70
2019-04-30T12:30:48.960Z,49.70
2019-04-30T12:33:19.123Z,48.20
2019-04-30T12:35:49.166Z,46.50
2019-04-30T12:38:19.135Z,45.30
2019-04-30T12:40:47.891Z,43.70
2019-04-30T12:43:16.363Z,43.00
2019-04-30T12:45:44.821Z,41.20
2019-04-30T12:48:14.857Z,42.00
2019-04-30T12:50:49.151Z,40.00
2019-04-30T12:53:19.246Z,38.80
2019-04-30T12:56:06.458Z,38.00
2019-04-30T12:58:35.072Z,37.80
2019-04-30T13:01:03.566Z,38.90
2019-04-30T13:03:32.047Z,37.50
2019-04-30T13:06:01.615Z,37.10
2019-04-30T13:08:31.023Z,36.30
2019-04-30T13:11:00.430Z,35.90
2019-04-30T13:13:31.699Z,35.20
2019-04-30T13:16:00.061Z,33.90
2019-04-30T13:18:29.607Z,31.80
2019-04-30T13:20:58.859Z,31.50
2019-04-30T13:23:27.550Z,33.80
2019-04-30T13:25:56.003Z,33.80
2019-04-30T13:28:26.055Z,35.40
2019-04-30T13:30:54.470Z,35.30
2019-04-30T13:33:28.895Z,34.30
2019-04-30T13:35:58.821Z,32.90
2019-04-30T13:38:49.101Z,30.90
2019-04-30T13:41:32.598Z,30.10
2019-04-30T13:44:02.251Z,29.60
2019-04-30T13:46:30.659Z,30.00
2019-04-30T13:48:59.146Z,30.00
2019-04-30T13:51:27.595Z,30.10
2019-04-30T13:53:56.026Z,30.00
2019-04-30T13:56:24.458Z,28.60
2019-04-30T13:58:52.891Z,28.50
2019-04-30T14:01:21.559Z,29.30
2019-04-30T14:04:09.917Z,30.10
2019-04-30T14:06:39.970Z,30.00
2019-04-30T14:09:16.150Z,31.50
2019-04-30T14:11:44.601Z,32.50
2019-04-30T14:14:13.026Z,32.10
2019-04-30T14:16:43.840Z,32.30
2019-04-30T14:19:11.675Z,32.20
2019-04-30T14:21:40.116Z,31.40
2019-04-30T14:24:09.465Z,32.00
2019-04-30T14:26:39.117Z,34.10
2019-04-30T14:29:07.737Z,32.60
2019-04-30T14:31:36.148Z,36.10
2019-04-30T14:34:04.906Z,37.10
2019-04-30T14:36:33.357Z,38.70
2019-04-30T14:39:13.377Z,37.60
2019-04-30T14:41:32.863Z,38.60
2019-04-30T14:44:03.881Z,38.20
2019-04-30T14:46:51.316Z,36.10
2019-04-30T14:49:38.485Z,35.00
2019-04-30T14:52:09.335Z,34.30
2019-04-30T14:54:42.454Z,37.40
2019-04-30T14:57:18.463Z,39.00
2019-04-30T14:59:48.721Z,40.20
2019-04-30T15:02:21.649Z,41.70
2019-04-30T15:04:50.123Z,39.60
2019-04-30T15:07:19.466Z,39.90
2019-04-30T15:09:47.903Z,40.60
2019-04-30T15:12:16.357Z,39.60
2019-04-30T15:14:44.767Z,39.70
2019-04-30T15:17:13.181Z,38.80
2019-04-30T15:19:41.689Z,38.80
2019-04-30T15:22:10.127Z,38.50
2019-04-30T15:24:40.118Z,39.10
2019-04-30T15:27:09.214Z,40.00
2019-04-30T15:29:39.216Z,40.30
2019-04-30T15:32:08.686Z,40.30
2019-04-30T15:34:39.901Z,40.80
2019-04-30T15:37:18.681Z,41.40
2019-04-30T15:39:39.488Z,41.90
2019-04-30T15:42:08.482Z,42.10
2019-04-30T15:44:42.615Z,43.00
2019-04-30T15:47:09.126Z,42.40
2019-04-30T15:49:38.022Z,42.00
2019-04-30T15:52:08.931Z,42.40
2019-04-30T15:54:36.943Z,41.90
2019-04-30T15:57:06.049Z,42.10
2019-04-30T15:59:39.533Z,42.00
2019-04-30T16:02:09.910Z,42.00
2019-04-30T16:04:40.014Z,42.40
2019-04-30T16:07:08.557Z,43.20
2019-04-30T16:09:38.763Z,43.50
2019-04-30T16:12:21.523Z,43.50
2019-04-30T16:14:49.928Z,42.80
2019-04-30T16:17:20.629Z,43.10
2019-04-30T16:19:49.252Z,43.00
2019-04-30T16:22:19.145Z,43.00
2019-04-30T16:24:49.494Z,44.30
2019-04-30T16:27:19.198Z,43.80
2019-04-30T16:29:49.732Z,43.20
2019-04-30T16:32:18.862Z,43.90
2019-04-30T16:34:49.413Z,43.50
2019-04-30T16:37:19.939Z,42.80
2019-04-30T16:39:47.618Z,43.40
2019-04-30T16:42:16.030Z,43.50
2019-04-30T16:44:44.463Z,44.10
2019-04-30T16:47:16.250Z,44.80
2019-04-30T16:49:43.057Z,44.20
2019-04-30T16:52:11.567Z,43.90
2019-04-30T16:54:40.001Z,44.30
2019-04-30T16:57:10.253Z,44.40
2019-04-30T16:59:42.251Z,44.50
2019-04-30T17:02:11.892Z,44.20
2019-04-30T17:04:44.642Z,43.90
2019-04-30T17:07:29.455Z,44.10
2019-04-30T17:10:01.992Z,44.60
2019-04-30T17:12:32.013Z,44.90
2019-04-30T17:15:13.692Z,44.70
2019-04-30T17:17:42.122Z,45.30
2019-04-30T17:20:11.197Z,45.40
2019-04-30T17:22:39.683Z,45.70
2019-04-30T17:25:08.698Z,46.00
2019-04-30T17:27:39.132Z,45.90
2019-04-30T17:30:11.043Z,46.50
2019-04-30T17:32:39.754Z,46.50
2019-04-30T17:35:09.699Z,46.70
2019-04-30T17:37:38.103Z,47.00
2019-04-30T17:40:09.247Z,46.80
2019-04-30T17:42:37.446Z,46.90
2019-04-30T17:45:09.435Z,49.10
2019-04-30T17:47:38.117Z,52.30
2019-04-30T17:50:08.914Z,54.70
2019-04-30T17:52:37.637Z,56.50
2019-04-30T17:55:09.680Z,58.50
2019-04-30T17:57:40.082Z,60.20
2019-04-30T18:00:18.649Z,62.30
2019-04-30T18:02:42.250Z,63.70
2019-04-30T18:05:11.395Z,65.50
2019-04-30T18:07:40.046Z,67.30
2019-04-30T18:10:10.637Z,68.80
2019-04-30T18:12:39.233Z,70.00
2019-04-30T18:15:12.391Z,70.80
2019-04-30T18:17:41.463Z,71.00
2019-04-30T18:20:19.044Z,71.60
2019-04-30T18:22:58.444Z,72.30
2019-04-30T18:25:40.659Z,73.20
2019-04-30T18:28:09.246Z,73.80
2019-04-30T18:30:39.211Z,74.70
2019-04-30T18:33:09.690Z,75.20
2019-04-30T18:35:38.825Z,76.40
2019-04-30T18:38:09.612Z,76.50
2019-04-30T18:40:39.737Z,77.90
2019-04-30T18:43:08.321Z,79.10
2019-04-30T18:45:36.886Z,80.30
2019-04-30T18:48:05.594Z,81.20
2019-04-30T18:50:34.006Z,82.00
2019-04-30T18:53:04.050Z,82.80
2019-04-30T18:55:32.693Z,83.90
2019-04-30T18:58:01.487Z,84.90
2019-04-30T19:00:31.800Z,85.90
2019-04-30T19:03:00.314Z,87.10
2019-04-30T19:05:30.981Z,88.10
2019-04-30T19:08:03.524Z,88.80
2019-04-30T19:10:36.796Z,89.80
2019-04-30T19:13:23.379Z,90.20
2019-04-30T19:16:18.173Z,90.50
2019-04-30T19:18:28.257Z,90.90
2019-04-30T19:20:57.842Z,91.30
2019-04-30T19:23:26.298Z,91.50
2019-04-30T19:25:54.779Z,91.90
2019-04-30T19:28:23.205Z,92.10
2019-04-30T19:30:57.612Z,92.50
2019-04-30T19:33:21.978Z,92.90
2019-04-30T19:35:50.656Z,93.00
2019-04-30T19:38:19.514Z,93.10
2019-04-30T19:40:49.382Z,93.50
2019-04-30T19:43:17.906Z,93.60
2019-04-30T19:45:46.394Z,93.80
2019-04-30T19:48:16.180Z,94.00
2019-04-30T19:50:44.819Z,94.50
2019-04-30T19:53:13.257Z,94.40
2019-04-30T19:55:41.691Z,94.60
2019-04-30T19:58:10.810Z,94.90
2019-04-30T20:00:40.334Z,95.00
2019-04-30T20:03:09.021Z,95.40
2019-04-30T20:05:39.444Z,95.20
2019-04-30T20:08:08.981Z,95.90
2019-04-30T20:10:39.879Z,95.80
2019-04-30T20:13:08.299Z,95.80
2019-04-30T20:15:36.758Z,96.10
2019-04-30T20:18:08.981Z,95.90
2019-04-30T20:20:39.822Z,95.80
2019-04-30T20:23:08.466Z,96.10
2019-04-30T20:25:36.970Z,96.10
2019-04-30T20:28:05.541Z,96.10
2019-04-30T20:30:34.031Z,96.30
2019-04-30T20:33:02.530Z,96.50
2019-04-30T20:35:30.943Z,96.80
2019-04-30T20:38:13.153Z,96.90
2019-04-30T20:40:44.992Z,97.00
2019-04-30T20:43:13.381Z,97.20
2019-04-30T20:45:41.843Z,97.50
2019-04-30T20:48:10.291Z,97.70
2019-04-30T20:50:38.710Z,98.10
2019-04-30T20:53:08.841Z,97.80
2019-04-30T20:55:40.486Z,97.70
2019-04-30T20:58:09.485Z,98.20
2019-04-30T21:00:38.179Z,98.30
2019-04-30T21:03:06.592Z,98.60
2019-04-30T21:05:35.104Z,98.60
2019-04-30T21:08:03.626Z,99.10
2019-04-30T21:10:32.036Z,98.90
2019-04-30T21:13:00.438Z,98.90
2019-04-30T21:15:29.762Z,99.30
2019-04-30T21:17:58.768Z,99.30
2019-04-30T21:20:28.879Z,99.30
2019-04-30T21:22:59.466Z,99.30
2019-04-30T21:25:29.220Z,99.50
2019-04-30T21:27:59.764Z,99.50
2019-04-30T21:30:28.038Z,99.70
2019-04-30T21:33:00.731Z,99.80
2019-04-30T21:35:50.708Z,99.90
2019-04-30T21:38:19.471Z,99.90
2019-04-30T21:40:49.223Z,99.90
2019-04-30T21:43:17.789Z,99.90
2019-04-30T21:45:46.211Z,99.90
2019-04-30T21:48:14.641Z,99.90
2019-04-30T21:50:43.179Z,99.90
2019-04-30T21:53:11.588Z,99.90
2019-04-30T21:55:40.099Z,99.90
2019-04-30T21:58:09.540Z,99.90
2019-04-30T22:00:42.562Z,99.90
2019-04-30T22:03:10.961Z,99.90
2019-04-30T22:05:39.409Z,99.90
2019-04-30T22:08:09.077Z,99.90
2019-04-30T22:10:38.118Z,99.90
2019-04-30T22:13:08.772Z,99.90
2019-04-30T22:15:36.720Z,99.90
2019-04-30T22:18:05.145Z,99.90
2019-04-30T22:20:33.554Z,99.90
2019-04-30T22:23:01.994Z,99.90
2019-04-30T22:25:30.399Z,99.90
2019-04-30T22:27:58.822Z,99.90
2019-04-30T22:30:27.274Z,99.90
2019-04-30T22:32:55.706Z,99.90
2019-04-30T22:35:28.486Z,99.90
2019-04-30T22:38:01.549Z,99.90
2019-04-30T22:40:31.643Z,99.90
2019-04-30T22:43:01.232Z,99.90
2019-04-30T22:45:31.306Z,99.90
2019-04-30T22:47:59.745Z,99.90
2019-04-30T22:50:28.144Z,99.90
2019-04-30T22:52:56.613Z,99.90
2019-04-30T22:55:25.018Z,99.90
2019-04-30T22:57:53.428Z,99.90
2019-04-30T23:00:26.347Z,99.90
2019-04-30T23:02:56.432Z,99.90
2019-04-30T23:05:24.865Z,99.90
2019-04-30T23:07:53.538Z,99.90
2019-04-30T23:10:22.050Z,99.90
2019-04-30T23:12:50.452Z,99.90
2019-04-30T23:15:19.800Z,99.90
2019-04-30T23:17:48.266Z,99.90
2019-04-30T23:20:16.742Z,99.90
2019-04-30T23:22:45.158Z,99.90
2019-04-30T23:25:13.934Z,99.90
2019-04-30T23:27:42.348Z,99.90
2019-04-30T23:30:11.515Z,99.90
2019-04-30T23:32:39.944Z,99.90
2019-04-30T23:35:08.426Z,99.90
2019-04-30T23:37:36.937Z,99.90
2019-04-30T23:40:25.202Z,99.90
2019-04-30T23:42:54.128Z,99.90
2019-04-30T23:45:22.636Z,99.90
2019-04-30T23:47:51.060Z,99.90
2019-04-30T23:50:19.523Z,99.90
2019-04-30T23:52:48.004Z,99.90
2019-04-30T23:55:16.418Z,99.90
2019-04-30T23:57:44.869Z,99.90
